createdAt,value
2022-08-03T00:01:22.610Z,99.90
2022-08-03T00:03:51.749Z,99.90
2022-08-03T00:06:21.684Z,99.90
2022-08-03T00:08:51.319Z,99.90
2022-08-03T00:11:20.596Z,99.90
2022-08-03T00:13:49.948Z,99.90
2022-08-03T00:16:19.654Z,99.90
2022-08-03T00:18:51.734Z,99.90
2022-08-03T00:21:21.920Z,99.90
2022-08-03T00:23:52.765Z,99.90
2022-08-03T00:26:21.973Z,99.90
2022-08-03T00:28:50.881Z,99.90
2022-08-03T00:31:25.528Z,99.90
2022-08-03T00:34:57.878Z,99.90
2022-08-03T00:37:41.073Z,99.90
2022-08-03T00:40:13.898Z,99.90
2022-08-03T00:42:52.013Z,99.90
2022-08-03T00:45:24.734Z,99.90
2022-08-03T00:47:54.373Z,99.90
2022-08-03T00:50:25.485Z,99.90
2022-08-03T00:52:58.551Z,99.90
2022-08-03T00:55:29.878Z,99.90
2022-08-03T00:58:01.447Z,99.90
2022-08-03T01:00:30.234Z,99.90
2022-08-03T01:02:59.136Z,99.90
2022-08-03T01:05:33.844Z,99.90
2022-08-03T01:08:13.456Z,99.90
2022-08-03T01:10:55.742Z,99.90
2022-08-03T01:14:01.747Z,99.90
2022-08-03T01:16:36.803Z,99.90
2022-08-03T01:19:35.438Z,99.90
2022-08-03T01:22:31.403Z,99.90
2022-08-03T01:25:14.496Z,99.90
2022-08-03T01:28:03.656Z,99.90
2022-08-03T01:30:38.830Z,99.90
2022-08-03T01:33:16.721Z,99.90
2022-08-03T01:36:14.709Z,99.90
2022-08-03T01:38:47.816Z,99.90
2022-08-03T01:41:22.841Z,99.90
2022-08-03T01:44:28.057Z,99.90
2022-08-03T01:46:49.211Z,99.90
2022-08-03T01:49:19.429Z,99.90
2022-08-03T01:51:58.544Z,99.90
2022-08-03T01:54:37.335Z,99.90
2022-08-03T01:57:07.914Z,99.90
2022-08-03T01:59:38.600Z,99.90
2022-08-03T02:02:15.650Z,99.90
2022-08-03T02:05:04.604Z,99.90
2022-08-03T02:07:35.805Z,99.90
2022-08-03T02:10:07.804Z,99.90
2022-08-03T02:12:38.870Z,99.90
2022-08-03T02:15:09.524Z,99.90
2022-08-03T02:17:42.033Z,99.90
2022-08-03T02:20:13.453Z,99.90
2022-08-03T02:22:44.576Z,99.90
2022-08-03T02:25:16.574Z,99.90
2022-08-03T02:27:54.875Z,99.90
2022-08-03T02:30:30.194Z,99.90
2022-08-03T02:33:02.501Z,99.90
2022-08-03T02:35:36.479Z,99.90
2022-08-03T02:38:10.265Z,99.90
2022-08-03T02:40:41.782Z,99.90
2022-08-03T02:43:18.269Z,99.90
2022-08-03T02:45:51.237Z,99.90
2022-08-03T02:48:27.962Z,99.90
2022-08-03T02:51:00.734Z,99.90
2022-08-03T02:53:31.817Z,99.90
2022-08-03T02:56:03.855Z,99.90
2022-08-03T02:58:34.462Z,99.90
2022-08-03T03:01:32.794Z,99.90
2022-08-03T03:04:03.584Z,99.90
2022-08-03T03:06:32.425Z,99.90
2022-08-03T03:09:02.111Z,99.90
2022-08-03T03:11:31.739Z,99.90
2022-08-03T03:14:01.481Z,99.90
2022-08-03T03:16:32.616Z,99.90
2022-08-03T03:19:03.773Z,99.90
2022-08-03T03:21:34.648Z,99.90
2022-08-03T03:24:04.832Z,99.90
2022-08-03T03:26:34.420Z,99.90
2022-08-03T03:29:04.799Z,99.90
2022-08-03T03:31:34.010Z,99.90
2022-08-03T03:34:05.207Z,99.90
2022-08-03T03:36:35.348Z,99.90
2022-08-03T03:39:14.222Z,99.90
2022-08-03T03:41:45.461Z,99.90
2022-08-03T03:44:14.257Z,99.90
2022-08-03T03:46:43.141Z,99.90
2022-08-03T03:49:13.892Z,99.90
2022-08-03T03:51:42.483Z,99.90
2022-08-03T03:54:11.232Z,99.90
2022-08-03T03:56:39.884Z,99.90
2022-08-03T03:59:08.362Z,99.90
2022-08-03T04:01:36.926Z,99.90
2022-08-03T04:04:19.753Z,99.90
2022-08-03T04:07:07.089Z,99.90
2022-08-03T04:10:14.159Z,99.90
2022-08-03T04:12:49.998Z,99.90
2022-08-03T04:15:23.475Z,99.90
2022-08-03T04:18:18.183Z,99.90
2022-08-03T04:21:15.152Z,99.90
2022-08-03T04:23:49.964Z,99.90
2022-08-03T04:26:24.001Z,99.90
2022-08-03T04:28:55.133Z,99.90
2022-08-03T04:32:13.304Z,99.90
2022-08-03T04:34:42.088Z,99.90
2022-08-03T04:37:15.893Z,99.90
2022-08-03T04:39:49.683Z,99.90
2022-08-03T04:42:23.537Z,99.90
2022-08-03T04:44:56.554Z,99.90
2022-08-03T04:47:29.358Z,99.90
2022-08-03T04:49:58.026Z,99.90
2022-08-03T04:52:26.621Z,99.90
2022-08-03T04:54:56.591Z,99.90
2022-08-03T04:57:25.086Z,99.90
2022-08-03T05:00:02.007Z,99.90
2022-08-03T05:02:32.467Z,99.90
2022-08-03T05:05:01.400Z,99.90
2022-08-03T05:07:36.414Z,99.90
2022-08-03T05:10:14.978Z,99.90
2022-08-03T05:12:46.748Z,99.90
2022-08-03T05:15:16.054Z,99.90
2022-08-03T05:17:44.887Z,99.90
2022-08-03T05:20:13.838Z,99.90
2022-08-03T05:22:48.507Z,99.90
2022-08-03T05:25:20.600Z,99.90
2022-08-03T05:27:50.899Z,99.90
2022-08-03T05:30:26.758Z,99.90
2022-08-03T05:33:03.357Z,99.90
2022-08-03T05:35:57.413Z,99.90
2022-08-03T05:38:24.121Z,99.90
2022-08-03T05:41:21.785Z,99.90
2022-08-03T05:43:53.805Z,99.90
2022-08-03T05:46:22.996Z,99.90
2022-08-03T05:48:52.333Z,99.90
2022-08-03T05:51:21.258Z,99.90
2022-08-03T05:54:15.195Z,99.90
2022-08-03T05:56:45.516Z,99.90
2022-08-03T05:59:37.097Z,99.90
2022-08-03T06:02:02.930Z,99.90
2022-08-03T06:04:31.458Z,99.90
2022-08-03T06:07:00.028Z,99.90
2022-08-03T06:09:31.873Z,99.90
2022-08-03T06:12:20.248Z,99.90
2022-08-03T06:14:49.012Z,99.90
2022-08-03T06:17:17.537Z,99.90
2022-08-03T06:19:46.033Z,99.90
2022-08-03T06:22:14.931Z,99.90
2022-08-03T06:24:48.187Z,99.90
2022-08-03T06:27:36.454Z,99.90
2022-08-03T06:30:07.996Z,99.90
2022-08-03T06:32:36.520Z,99.90
2022-08-03T06:35:06.158Z,99.90
2022-08-03T06:37:45.788Z,99.90
2022-08-03T06:40:21.597Z,99.90
2022-08-03T06:42:51.862Z,99.90
2022-08-03T06:45:20.443Z,99.90
2022-08-03T06:47:49.129Z,99.90
2022-08-03T06:50:24.271Z,99.90
2022-08-03T06:52:54.762Z,99.90
2022-08-03T06:55:23.406Z,99.90
2022-08-03T06:57:53.776Z,99.90
2022-08-03T07:00:23.003Z,99.90
2022-08-03T07:02:56.127Z,99.90
2022-08-03T07:05:26.826Z,99.90
2022-08-03T07:07:57.786Z,99.90
2022-08-03T07:10:27.729Z,99.90
2022-08-03T07:12:57.606Z,99.90
2022-08-03T07:15:55.061Z,99.90
2022-08-03T07:18:14.729Z,99.90
2022-08-03T07:20:43.400Z,99.90
2022-08-03T07:23:17.559Z,99.90
2022-08-03T07:25:47.779Z,99.90
2022-08-03T07:28:17.754Z,99.90
2022-08-03T07:30:46.286Z,99.90
2022-08-03T07:33:15.296Z,99.90
2022-08-03T07:35:43.942Z,99.90
2022-08-03T07:38:12.498Z,99.90
2022-08-03T07:40:44.501Z,99.90
2022-08-03T07:43:15.222Z,99.90
2022-08-03T07:45:45.386Z,99.90
2022-08-03T07:48:13.864Z,99.90
2022-08-03T07:50:42.654Z,99.80
2022-08-03T07:53:11.129Z,99.70
2022-08-03T07:55:39.924Z,99.00
2022-08-03T07:58:12.440Z,96.80
2022-08-03T08:00:41.301Z,97.00
2022-08-03T08:03:11.541Z,97.70
2022-08-03T08:05:40.182Z,97.00
2022-08-03T08:08:08.980Z,96.20
2022-08-03T08:10:38.301Z,94.60
2022-08-03T08:13:07.136Z,93.40
2022-08-03T08:15:35.642Z,93.70
2022-08-03T08:18:12.861Z,91.60
2022-08-03T08:20:41.497Z,92.80
2022-08-03T08:23:37.817Z,89.20
2022-08-03T08:26:00.105Z,89.10
2022-08-03T08:28:39.587Z,90.20
2022-08-03T08:31:13.033Z,88.30
2022-08-03T08:34:03.272Z,86.60
2022-08-03T08:36:31.544Z,82.40
2022-08-03T08:39:00.079Z,80.20
2022-08-03T08:41:32.103Z,82.10
2022-08-03T08:44:01.311Z,80.70
2022-08-03T08:46:34.026Z,82.20
2022-08-03T08:49:05.022Z,80.50
2022-08-03T08:51:59.715Z,77.50
2022-08-03T08:54:28.409Z,76.00
2022-08-03T08:57:06.667Z,75.00
2022-08-03T08:59:49.026Z,77.30
2022-08-03T09:02:19.107Z,75.20
2022-08-03T09:04:50.355Z,73.00
2022-08-03T09:07:20.716Z,73.20
2022-08-03T09:10:05.917Z,76.00
2022-08-03T09:12:44.067Z,72.90
2022-08-03T09:15:25.169Z,69.20
2022-08-03T09:17:56.553Z,68.00
2022-08-03T09:20:28.716Z,65.30
2022-08-03T09:23:00.653Z,66.30
2022-08-03T09:25:32.231Z,68.10
2022-08-03T09:28:12.530Z,66.60
2022-08-03T09:31:00.806Z,67.40
2022-08-03T09:33:59.855Z,65.90
2022-08-03T09:36:42.959Z,66.30
2022-08-03T09:39:13.922Z,65.40
2022-08-03T09:41:46.143Z,65.90
2022-08-03T09:44:24.640Z,65.70
2022-08-03T09:46:57.013Z,63.10
2022-08-03T09:49:26.265Z,63.70
2022-08-03T09:52:32.529Z,66.70
2022-08-03T09:54:46.324Z,63.50
2022-08-03T09:57:25.510Z,64.30
2022-08-03T10:00:23.414Z,64.70
2022-08-03T10:03:06.032Z,63.60
2022-08-03T10:05:34.857Z,63.30
2022-08-03T10:08:17.402Z,64.80
2022-08-03T10:10:48.582Z,64.60
2022-08-03T10:13:20.008Z,65.80
2022-08-03T10:16:22.081Z,64.60
2022-08-03T10:18:39.457Z,65.30
2022-08-03T10:21:14.821Z,64.90
2022-08-03T10:23:45.663Z,64.80
2022-08-03T10:26:22.718Z,65.50
2022-08-03T10:28:54.866Z,65.60
2022-08-03T10:31:25.942Z,66.90
2022-08-03T10:33:58.574Z,66.50
2022-08-03T10:36:32.917Z,64.40
2022-08-03T10:39:04.613Z,63.90
2022-08-03T10:41:48.182Z,62.30
2022-08-03T10:44:21.435Z,63.60
2022-08-03T10:47:15.791Z,62.10
2022-08-03T10:49:46.702Z,63.00
2022-08-03T10:52:31.944Z,63.90
2022-08-03T10:55:21.395Z,63.30
2022-08-03T10:57:58.775Z,63.90
2022-08-03T11:00:30.560Z,64.30
2022-08-03T11:03:14.074Z,63.80
2022-08-03T11:05:45.571Z,64.70
2022-08-03T11:08:32.181Z,64.60
2022-08-03T11:11:25.090Z,64.80
2022-08-03T11:14:04.628Z,67.20
2022-08-03T11:16:36.177Z,68.00
2022-08-03T11:19:07.817Z,66.40
2022-08-03T11:21:58.817Z,67.80
2022-08-03T11:25:03.167Z,66.40
2022-08-03T11:27:35.147Z,69.50
2022-08-03T11:30:10.158Z,69.20
2022-08-03T11:33:01.870Z,69.80
2022-08-03T11:35:33.741Z,72.80
2022-08-03T11:38:14.794Z,72.80
2022-08-03T11:40:48.890Z,72.80
2022-08-03T11:43:48.837Z,71.70
2022-08-03T11:46:28.512Z,72.00
2022-08-03T11:49:10.814Z,72.10
2022-08-03T11:51:40.977Z,72.50
2022-08-03T11:54:11.413Z,72.70
2022-08-03T11:56:47.919Z,75.80
2022-08-03T11:59:22.015Z,81.70
2022-08-03T12:01:51.895Z,85.10
2022-08-03T12:04:20.515Z,86.70
2022-08-03T12:07:01.829Z,87.10
2022-08-03T12:09:30.416Z,88.70
2022-08-03T12:12:00.725Z,89.40
2022-08-03T12:14:48.455Z,90.50
2022-08-03T12:17:20.351Z,89.50
2022-08-03T12:19:49.078Z,88.30
2022-08-03T12:22:17.967Z,86.40
2022-08-03T12:24:47.572Z,86.60
2022-08-03T12:27:26.181Z,87.70
2022-08-03T12:29:58.979Z,85.50
2022-08-03T12:32:29.158Z,88.00
2022-08-03T12:35:01.694Z,90.60
2022-08-03T12:37:31.597Z,88.30
2022-08-03T12:40:10.162Z,89.20
2022-08-03T12:42:41.150Z,91.00
2022-08-03T12:45:32.054Z,91.90
2022-08-03T12:48:02.933Z,91.70
2022-08-03T12:50:34.380Z,90.90
2022-08-03T12:53:05.303Z,90.10
2022-08-03T12:55:57.378Z,90.00
2022-08-03T12:58:35.138Z,91.20
2022-08-03T13:01:09.785Z,92.70
2022-08-03T13:03:45.783Z,92.70
2022-08-03T13:06:21.246Z,92.80
2022-08-03T13:08:51.729Z,93.80
2022-08-03T13:11:22.760Z,94.20
2022-08-03T13:14:19.729Z,92.70
2022-08-03T13:16:50.535Z,93.50
2022-08-03T13:19:19.094Z,93.00
2022-08-03T13:22:01.615Z,92.80
2022-08-03T13:24:34.073Z,93.90
2022-08-03T13:27:22.108Z,95.10
2022-08-03T13:29:57.292Z,96.10
2022-08-03T13:32:27.298Z,97.50
2022-08-03T13:34:55.981Z,98.50
2022-08-03T13:37:24.838Z,97.20
2022-08-03T13:39:59.227Z,95.20
2022-08-03T13:42:30.838Z,94.70
2022-08-03T13:44:59.712Z,96.70
2022-08-03T13:47:30.026Z,95.90
2022-08-03T13:50:00.868Z,94.80
2022-08-03T13:52:33.039Z,94.50
2022-08-03T13:55:01.980Z,92.70
2022-08-03T13:58:05.729Z,93.10
2022-08-03T14:00:27.947Z,92.70
2022-08-03T14:03:16.593Z,92.20
2022-08-03T14:05:45.939Z,92.80
2022-08-03T14:08:14.528Z,91.00
2022-08-03T14:10:45.901Z,87.20
2022-08-03T14:13:17.411Z,85.50
2022-08-03T14:15:50.998Z,88.90
2022-08-03T14:18:28.305Z,90.30
2022-08-03T14:21:03.366Z,90.90
2022-08-03T14:23:34.628Z,90.80
2022-08-03T14:26:03.411Z,90.30
2022-08-03T14:28:42.948Z,90.70
2022-08-03T14:32:09.164Z,90.60
2022-08-03T14:34:01.573Z,90.10
2022-08-03T14:42:25.359Z,90.60
2022-08-03T14:44:58.502Z,90.70
2022-08-03T14:47:30.380Z,91.30
2022-08-03T14:50:31.468Z,91.40
2022-08-03T14:52:48.785Z,92.00
2022-08-03T14:55:17.288Z,92.40
2022-08-03T14:57:45.803Z,92.50
2022-08-03T15:00:22.293Z,92.60
2022-08-03T15:02:50.827Z,92.60
2022-08-03T15:05:20.770Z,92.70
2022-08-03T15:07:49.229Z,92.40
2022-08-03T15:10:18.682Z,92.80
2022-08-03T15:12:47.505Z,92.60
2022-08-03T15:15:16.293Z,92.60
2022-08-03T15:17:59.717Z,92.90
2022-08-03T15:20:43.255Z,92.80
2022-08-03T15:23:13.923Z,93.50
2022-08-03T15:26:04.143Z,92.70
2022-08-03T15:28:31.169Z,91.80
2022-08-03T15:30:59.883Z,91.70
2022-08-03T15:33:54.283Z,91.70
2022-08-03T15:36:24.513Z,91.10
2022-08-03T15:38:58.331Z,90.50
2022-08-03T15:41:26.951Z,88.80
2022-08-03T15:43:55.524Z,87.80
2022-08-03T15:46:29.482Z,86.90
2022-08-03T15:48:58.370Z,87.40
2022-08-03T15:51:31.288Z,88.90
2022-08-03T15:53:59.792Z,90.10
2022-08-03T15:56:28.294Z,91.00
2022-08-03T15:59:04.205Z,90.90
2022-08-03T16:01:42.903Z,91.70
2022-08-03T16:04:11.471Z,92.70
2022-08-03T16:06:41.537Z,93.50
2022-08-03T16:09:24.174Z,93.70
2022-08-03T16:11:59.479Z,94.00
2022-08-03T16:14:34.872Z,94.60
2022-08-03T16:17:06.945Z,96.10
2022-08-03T16:19:35.536Z,96.00
2022-08-03T16:22:05.675Z,96.30
2022-08-03T16:24:35.374Z,97.20
2022-08-03T16:27:06.407Z,97.70
2022-08-03T16:29:45.954Z,97.90
2022-08-03T16:32:14.730Z,97.10
2022-08-03T16:34:43.879Z,97.20
2022-08-03T16:37:37.044Z,97.40
2022-08-03T16:40:02.296Z,98.10
2022-08-03T16:42:31.000Z,97.30
2022-08-03T16:44:59.484Z,97.30
2022-08-03T16:47:28.064Z,97.20
2022-08-03T16:49:59.672Z,97.60
2022-08-03T16:53:09.121Z,97.80
2022-08-03T16:55:48.962Z,98.00
2022-08-03T16:58:34.912Z,97.10
2022-08-03T17:01:23.950Z,97.50
2022-08-03T17:04:01.766Z,96.70
2022-08-03T17:06:36.141Z,96.60
2022-08-03T17:09:09.840Z,96.00
2022-08-03T17:11:47.303Z,95.80
2022-08-03T17:14:21.609Z,95.70
2022-08-03T17:16:53.978Z,95.90
2022-08-03T17:19:48.897Z,95.60
2022-08-03T17:22:32.499Z,95.00
2022-08-03T17:25:09.474Z,95.30
2022-08-03T17:28:48.844Z,94.50
2022-08-03T17:31:23.058Z,95.00
2022-08-03T17:34:02.056Z,94.60
2022-08-03T17:37:02.292Z,94.50
2022-08-03T17:39:41.778Z,94.70
2022-08-03T17:42:29.236Z,95.00
2022-08-03T17:47:57.352Z,97.00
2022-08-03T17:50:40.339Z,98.10
2022-08-03T17:53:15.584Z,98.90
2022-08-03T17:56:42.451Z,99.90
2022-08-03T17:59:14.038Z,99.20
2022-08-03T18:02:19.920Z,99.90
2022-08-03T18:05:16.473Z,99.90
2022-08-03T18:08:00.766Z,99.90
2022-08-03T18:10:46.816Z,99.90
2022-08-03T18:13:25.507Z,99.90
2022-08-03T18:16:04.531Z,99.90
2022-08-03T18:18:40.330Z,99.90
2022-08-03T18:21:17.104Z,99.90
2022-08-03T18:24:04.692Z,99.90
2022-08-03T18:26:38.209Z,99.90
2022-08-03T18:29:23.650Z,99.90
2022-08-03T18:32:03.811Z,99.90
2022-08-03T18:34:36.386Z,99.90
2022-08-03T18:37:09.904Z,99.90
2022-08-03T18:39:49.816Z,99.90
2022-08-03T18:42:25.637Z,99.90
2022-08-03T18:44:55.964Z,99.90
2022-08-03T18:47:52.559Z,99.90
2022-08-03T18:50:31.629Z,99.90
2022-08-03T18:53:16.312Z,99.90
2022-08-03T18:56:01.618Z,99.90
2022-08-03T18:58:41.701Z,99.90
2022-08-03T19:02:00.640Z,99.90
2022-08-03T19:04:15.304Z,99.90
2022-08-03T19:06:49.096Z,99.90
2022-08-03T19:09:31.905Z,99.90
2022-08-03T19:12:13.364Z,99.90
2022-08-03T19:15:03.261Z,99.90
2022-08-03T19:17:40.597Z,99.90
2022-08-03T19:20:12.244Z,99.90
2022-08-03T19:22:45.790Z,99.90
2022-08-03T19:25:16.981Z,99.90
2022-08-03T19:27:48.182Z,99.90
2022-08-03T19:30:33.146Z,99.90
2022-08-03T19:33:02.621Z,99.90
2022-08-03T19:35:51.883Z,99.90
2022-08-03T19:38:27.400Z,99.90
2022-08-03T19:41:02.187Z,99.90
2022-08-03T19:43:49.304Z,99.90
2022-08-03T19:46:30.932Z,99.90
2022-08-03T19:49:21.278Z,99.90
2022-08-03T19:52:02.706Z,99.90
2022-08-03T19:54:45.792Z,99.90
2022-08-03T19:57:49.605Z,99.90
2022-08-03T20:00:26.429Z,99.90
2022-08-03T20:02:59.418Z,99.90
2022-08-03T20:05:29.570Z,99.90
2022-08-03T20:08:15.439Z,99.90
2022-08-03T20:10:51.313Z,99.90
2022-08-03T20:13:21.984Z,99.90
2022-08-03T20:15:56.919Z,99.90
2022-08-03T20:18:25.640Z,99.90
2022-08-03T20:20:58.605Z,99.90
2022-08-03T20:23:39.683Z,99.90
2022-08-03T20:26:31.479Z,99.90
2022-08-03T20:29:10.015Z,99.90
2022-08-03T20:31:38.941Z,99.90
2022-08-03T20:34:09.128Z,99.90
2022-08-03T20:36:38.215Z,99.90
2022-08-03T20:39:09.203Z,99.90
2022-08-03T20:41:38.956Z,99.90
2022-08-03T20:44:08.276Z,99.90
2022-08-03T20:46:53.079Z,99.90
2022-08-03T20:49:25.614Z,99.90
2022-08-03T20:51:55.162Z,99.90
2022-08-03T20:54:29.201Z,99.90
2022-08-03T20:56:59.877Z,99.90
2022-08-03T20:59:38.451Z,99.90
2022-08-03T21:02:19.780Z,99.90
2022-08-03T21:05:03.319Z,99.90
2022-08-03T21:08:05.584Z,99.90
2022-08-03T21:10:38.157Z,99.90
2022-08-03T21:12:55.019Z,96.30
2022-08-03T21:13:17.754Z,99.90
2022-08-03T21:16:07.146Z,99.90
2022-08-03T21:18:47.057Z,99.90
2022-08-03T21:21:19.423Z,99.90
2022-08-03T21:23:52.684Z,99.90
2022-08-03T21:26:24.992Z,99.90
2022-08-03T21:28:57.213Z,99.90
2022-08-03T21:31:27.085Z,99.90
2022-08-03T21:33:58.975Z,99.90
2022-08-03T21:36:29.281Z,99.90
2022-08-03T21:39:03.776Z,99.90
2022-08-03T21:41:34.189Z,99.90
2022-08-03T21:44:04.951Z,99.90
2022-08-03T21:46:38.538Z,99.90
2022-08-03T21:50:05.893Z,99.90
2022-08-03T21:52:00.885Z,99.90
2022-08-03T21:54:55.706Z,99.90
2022-08-03T21:57:27.252Z,99.90
2022-08-03T21:59:58.297Z,99.90
2022-08-03T22:02:55.467Z,99.90
2022-08-03T22:05:42.926Z,99.90
2022-08-03T22:08:14.992Z,99.90
2022-08-03T22:10:59.041Z,99.90
2022-08-03T22:13:44.057Z,99.90
2022-08-03T22:16:15.312Z,99.90
2022-08-03T22:19:09.167Z,99.90
2022-08-03T22:21:38.448Z,99.90
2022-08-03T22:24:08.298Z,99.90
2022-08-03T22:26:41.003Z,99.90
2022-08-03T22:29:11.070Z,99.90
2022-08-03T22:31:57.350Z,99.90
2022-08-03T22:34:29.606Z,99.90
2022-08-03T22:37:04.550Z,99.90
2022-08-03T22:39:33.467Z,99.90
2022-08-03T22:42:06.286Z,99.90
2022-08-03T22:44:37.417Z,99.90
2022-08-03T22:47:07.164Z,99.90
2022-08-03T22:50:32.916Z,99.90
2022-08-03T22:52:56.114Z,99.90
2022-08-03T22:55:26.219Z,99.90
2022-08-03T22:57:55.640Z,99.90
2022-08-03T23:00:26.611Z,99.90
2022-08-03T23:03:13.285Z,99.90
2022-08-03T23:06:02.593Z,99.90
2022-08-03T23:08:34.634Z,99.90
2022-08-03T23:11:08.608Z,99.90
2022-08-03T23:13:40.543Z,99.90
2022-08-03T23:16:11.021Z,99.90
2022-08-03T23:18:43.904Z,99.90
2022-08-03T23:21:15.125Z,99.90
2022-08-03T23:23:45.065Z,99.90
2022-08-03T23:26:15.961Z,99.90
2022-08-03T23:28:48.196Z,99.90
2022-08-03T23:31:20.149Z,99.90
2022-08-03T23:34:16.734Z,99.90
2022-08-03T23:36:49.543Z,99.90
2022-08-03T23:39:21.234Z,99.90
2022-08-03T23:41:51.523Z,99.90
2022-08-03T23:44:23.260Z,99.90
2022-08-03T23:46:53.628Z,99.90
2022-08-03T23:49:22.983Z,99.90
2022-08-03T23:52:03.782Z,99.90
2022-08-03T23:54:52.777Z,99.90
2022-08-03T23:57:33.745Z,99.90
